createdAt,value
2018-08-06T00:00:24.209Z,2.40
2018-08-06T00:02:52.915Z,2.13
2018-08-06T00:05:21.588Z,2.17
2018-08-06T00:07:50.340Z,2.87
2018-08-06T00:10:20.595Z,2.60
2018-08-06T00:12:49.208Z,2.27
2018-08-06T00:15:17.907Z,2.37
2018-08-06T00:17:46.696Z,2.67
2018-08-06T00:20:16.112Z,2.63
2018-08-06T00:22:45.028Z,2.37
2018-08-06T00:25:15.104Z,2.80
2018-08-06T00:27:44.638Z,2.90
2018-08-06T00:30:15.020Z,3.00
2018-08-06T00:32:44.451Z,2.70
2018-08-06T00:35:13.792Z,2.67
2018-08-06T00:37:42.611Z,2.60
2018-08-06T00:40:14.230Z,2.50
2018-08-06T00:42:43.680Z,2.30
2018-08-06T00:45:15.411Z,2.47
2018-08-06T00:47:44.571Z,2.47
2018-08-06T00:50:13.453Z,2.80
2018-08-06T00:52:42.209Z,2.80
2018-08-06T00:55:14.456Z,2.70
2018-08-06T00:57:43.378Z,2.60
2018-08-06T01:00:14.263Z,2.97
2018-08-06T01:02:43.469Z,2.17
2018-08-06T01:05:13.578Z,2.80
2018-08-06T01:07:43.236Z,2.80
2018-08-06T01:10:13.801Z,2.77
2018-08-06T01:12:42.436Z,2.30
2018-08-06T01:15:13.369Z,2.33
2018-08-06T01:17:42.307Z,2.50
2018-08-06T01:20:12.603Z,2.10
2018-08-06T01:22:42.155Z,2.17
2018-08-06T01:25:11.474Z,2.50
2018-08-06T01:27:40.112Z,2.30
2018-08-06T01:30:10.828Z,1.87
2018-08-06T01:32:39.417Z,2.47
2018-08-06T01:35:09.652Z,2.60
2018-08-06T01:37:38.440Z,2.57
2018-08-06T01:40:09.101Z,2.33
2018-08-06T01:42:37.902Z,2.60
2018-08-06T01:45:07.261Z,2.03
2018-08-06T01:47:36.472Z,2.03
2018-08-06T01:50:05.967Z,2.20
2018-08-06T01:52:34.690Z,2.10
2018-08-06T01:55:03.421Z,2.33
2018-08-06T01:57:32.312Z,1.90
2018-08-06T02:00:01.040Z,2.23
2018-08-06T02:02:29.787Z,2.07
2018-08-06T02:04:58.524Z,2.57
2018-08-06T02:07:27.256Z,2.10
2018-08-06T02:09:56.076Z,2.30
2018-08-06T02:12:24.843Z,2.30
2018-08-06T02:14:53.594Z,2.80
2018-08-06T02:17:22.361Z,2.60
2018-08-06T02:19:51.380Z,2.10
2018-08-06T02:22:20.830Z,2.30
2018-08-06T02:24:49.479Z,2.60
2018-08-06T02:27:18.359Z,2.00
2018-08-06T02:29:47.071Z,2.57
2018-08-06T02:32:15.974Z,2.73
2018-08-06T02:34:44.745Z,2.20
2018-08-06T02:37:13.601Z,2.53
2018-08-06T02:39:42.229Z,2.00
2018-08-06T02:42:11.223Z,2.90
2018-08-06T02:44:39.912Z,2.40
2018-08-06T02:47:08.737Z,2.73
2018-08-06T02:49:37.807Z,2.73
2018-08-06T02:52:07.100Z,2.20
2018-08-06T02:54:35.679Z,2.50
2018-08-06T02:57:04.421Z,2.03
2018-08-06T02:59:33.197Z,2.30
2018-08-06T03:02:02.090Z,2.50
2018-08-06T03:04:31.216Z,2.37
2018-08-06T03:07:03.112Z,2.30
2018-08-06T03:09:31.764Z,2.47
2018-08-06T03:12:00.541Z,2.53
2018-08-06T03:14:29.284Z,2.20
2018-08-06T03:16:57.971Z,2.20
2018-08-06T03:19:26.635Z,2.30
2018-08-06T03:21:55.253Z,2.60
2018-08-06T03:24:24.055Z,3.00
2018-08-06T03:26:52.880Z,2.17
2018-08-06T03:29:21.590Z,2.40
2018-08-06T03:31:50.415Z,2.83
2018-08-06T03:34:19.516Z,2.97
2018-08-06T03:36:48.131Z,2.40
2018-08-06T03:39:16.770Z,2.67
2018-08-06T03:41:45.581Z,2.67
2018-08-06T03:44:14.296Z,3.07
2018-08-06T03:46:42.980Z,3.30
2018-08-06T03:49:11.626Z,2.70
2018-08-06T03:51:40.688Z,3.43
2018-08-06T03:54:09.357Z,3.40
2018-08-06T03:56:38.200Z,3.00
2018-08-06T03:59:06.787Z,3.13
2018-08-06T04:04:31.296Z,2.77
2018-08-06T04:07:00.967Z,2.73
2018-08-06T04:09:29.681Z,3.30
2018-08-06T04:11:58.791Z,3.20
2018-08-06T04:14:27.794Z,3.20
2018-08-06T04:16:56.776Z,3.20
2018-08-06T04:19:25.801Z,3.50
2018-08-06T04:21:54.744Z,3.00
2018-08-06T04:24:23.773Z,2.60
2018-08-06T04:26:52.651Z,3.47
2018-08-06T04:29:21.405Z,3.10
2018-08-06T04:31:50.060Z,2.83
2018-08-06T04:34:18.954Z,3.20
2018-08-06T04:36:47.827Z,2.63
2018-08-06T04:39:16.478Z,3.10
2018-08-06T04:41:45.797Z,2.67
2018-08-06T04:44:14.454Z,3.13
2018-08-06T04:46:43.270Z,2.80
2018-08-06T04:49:12.040Z,2.50
2018-08-06T04:51:40.929Z,2.60
2018-08-06T04:54:09.806Z,2.63
2018-08-06T04:56:38.915Z,3.17
2018-08-06T04:59:07.637Z,3.10
2018-08-06T05:01:36.500Z,3.13
2018-08-06T05:04:05.570Z,3.03
2018-08-06T05:06:34.186Z,3.50
2018-08-06T05:09:03.174Z,2.70
2018-08-06T05:11:32.259Z,2.87
2018-08-06T05:14:01.131Z,2.97
2018-08-06T05:16:29.966Z,3.00
2018-08-06T05:18:58.790Z,2.50
2018-08-06T05:21:27.952Z,2.83
2018-08-06T05:23:59.370Z,2.60
2018-08-06T05:26:30.106Z,2.80
2018-08-06T05:28:58.991Z,2.83
2018-08-06T05:31:28.770Z,2.50
2018-08-06T05:33:58.700Z,2.80
2018-08-06T05:36:28.048Z,2.13
2018-08-06T05:38:57.064Z,2.40
2018-08-06T05:41:27.529Z,2.70
2018-08-06T05:43:58.137Z,2.80
2018-08-06T05:46:27.115Z,2.60
2018-08-06T05:48:56.263Z,2.40
2018-08-06T05:51:25.091Z,2.27
2018-08-06T05:53:53.720Z,2.10
2018-08-06T05:56:22.877Z,2.43
2018-08-06T05:58:51.687Z,2.20
2018-08-06T06:01:20.344Z,2.17
2018-08-06T06:03:49.085Z,2.57
2018-08-06T06:06:19.110Z,2.43
2018-08-06T06:08:48.044Z,2.23
2018-08-06T06:11:16.806Z,2.47
2018-08-06T06:13:45.442Z,2.47
2018-08-06T06:16:14.210Z,3.23
2018-08-06T06:18:43.140Z,2.50
2018-08-06T06:21:11.979Z,2.43
2018-08-06T06:23:40.640Z,2.60
2018-08-06T06:26:09.639Z,2.70
2018-08-06T06:28:38.470Z,2.27
2018-08-06T06:31:07.410Z,2.10
2018-08-06T06:33:36.292Z,2.80
2018-08-06T06:36:05.086Z,2.20
2018-08-06T06:38:34.108Z,2.73
2018-08-06T06:41:03.168Z,2.70
2018-08-06T06:43:32.079Z,2.73
2018-08-06T06:46:01.158Z,2.17
2018-08-06T06:48:30.457Z,2.20
2018-08-06T06:50:59.371Z,2.00
2018-08-06T06:53:28.203Z,2.37
2018-08-06T06:55:57.068Z,2.17
2018-08-06T06:58:26.040Z,2.33
2018-08-06T07:00:54.841Z,2.17
2018-08-06T07:03:23.842Z,2.17
2018-08-06T07:05:53.070Z,1.93
2018-08-06T07:08:21.839Z,2.37
2018-08-06T07:10:50.651Z,2.23
2018-08-06T07:13:19.505Z,2.70
2018-08-06T07:15:48.219Z,2.70
2018-08-06T07:18:17.156Z,2.20
2018-08-06T07:20:46.446Z,1.83
2018-08-06T07:23:15.275Z,2.30
2018-08-06T07:25:44.188Z,2.47
2018-08-06T07:28:13.136Z,2.63
2018-08-06T07:30:42.008Z,1.93
2018-08-06T07:33:10.733Z,2.17
2018-08-06T07:35:39.607Z,2.27
2018-08-06T07:38:08.680Z,2.33
2018-08-06T07:40:37.786Z,2.33
2018-08-06T07:43:06.673Z,2.20
2018-08-06T07:45:35.515Z,2.33
2018-08-06T07:48:04.467Z,2.00
2018-08-06T07:50:33.134Z,2.70
2018-08-06T07:53:02.241Z,1.80
2018-08-06T07:55:31.069Z,2.30
2018-08-06T07:58:00.017Z,2.43
2018-08-06T08:00:28.898Z,1.93
2018-08-06T08:02:57.899Z,2.23
2018-08-06T08:05:26.825Z,2.20
2018-08-06T08:07:55.690Z,2.20
2018-08-06T08:10:24.885Z,2.17
2018-08-06T08:12:53.747Z,2.37
2018-08-06T08:15:25.383Z,2.50
2018-08-06T08:17:54.938Z,2.30
2018-08-06T08:20:23.729Z,2.23
2018-08-06T08:22:52.554Z,2.20
2018-08-06T08:25:22.406Z,1.93
2018-08-06T08:27:51.200Z,2.30
2018-08-06T08:30:20.583Z,1.97
2018-08-06T08:32:49.600Z,2.03
2018-08-06T08:35:18.910Z,2.50
2018-08-06T08:37:47.943Z,2.50
2018-08-06T08:40:19.827Z,2.30
2018-08-06T08:42:48.656Z,1.83
2018-08-06T08:45:18.565Z,2.17
2018-08-06T08:47:47.383Z,2.53
2018-08-06T08:50:17.928Z,2.40
2018-08-06T08:52:46.867Z,1.93
2018-08-06T08:55:17.309Z,2.60
2018-08-06T08:57:46.241Z,2.07
2018-08-06T09:00:19.824Z,2.30
2018-08-06T09:02:49.529Z,2.37
2018-08-06T09:05:18.727Z,2.10
2018-08-06T09:07:47.978Z,2.67
2018-08-06T09:10:17.566Z,2.00
2018-08-06T09:12:46.871Z,2.67
2018-08-06T09:15:19.211Z,2.47
2018-08-06T09:17:48.075Z,2.23
2018-08-06T09:20:17.435Z,2.00
2018-08-06T09:22:46.820Z,1.93
2018-08-06T09:25:16.026Z,2.37
2018-08-06T09:27:46.139Z,2.23
2018-08-06T09:30:17.195Z,2.13
2018-08-06T09:32:47.444Z,2.10
2018-08-06T09:35:17.111Z,1.97
2018-08-06T09:37:46.163Z,1.87
2018-08-06T09:40:16.349Z,2.27
2018-08-06T09:42:45.821Z,2.20
2018-08-06T09:45:15.974Z,2.03
2018-08-06T09:47:45.864Z,2.20
2018-08-06T09:50:15.594Z,2.07
2018-08-06T09:52:45.164Z,2.07
2018-08-06T09:55:15.420Z,2.40
2018-08-06T09:57:44.455Z,1.90
2018-08-06T10:00:21.627Z,2.20
2018-08-06T10:02:51.292Z,2.83
2018-08-06T10:05:21.330Z,2.37
2018-08-06T10:07:50.143Z,2.20
2018-08-06T10:10:19.045Z,2.43
2018-08-06T10:12:48.056Z,2.10
2018-08-06T10:15:17.702Z,2.17
2018-08-06T10:17:48.177Z,2.13
2018-08-06T10:20:19.055Z,2.50
2018-08-06T10:22:48.616Z,1.87
2018-08-06T10:25:17.706Z,1.80
2018-08-06T10:27:47.209Z,1.60
2018-08-06T10:30:22.993Z,1.97
2018-08-06T10:32:51.693Z,1.80
2018-08-06T10:35:21.063Z,2.00
2018-08-06T10:37:49.946Z,2.17
2018-08-06T10:40:22.042Z,2.17
2018-08-06T10:42:50.969Z,1.97
2018-08-06T10:45:21.999Z,2.53
2018-08-06T10:47:51.274Z,2.20
2018-08-06T10:50:20.432Z,2.10
2018-08-06T10:52:49.338Z,1.90
2018-08-06T10:55:18.099Z,2.30
2018-08-06T10:57:47.268Z,2.07
2018-08-06T11:00:18.701Z,1.60
2018-08-06T11:02:48.270Z,2.23
2018-08-06T11:05:18.115Z,1.30
2018-08-06T11:07:47.683Z,2.03
2018-08-06T11:10:19.598Z,1.60
2018-08-06T11:12:48.427Z,1.80
2018-08-06T11:15:19.087Z,1.90
2018-08-06T11:17:48.114Z,1.80
2018-08-06T11:20:17.956Z,1.90
2018-08-06T11:22:47.266Z,1.40
2018-08-06T11:25:17.776Z,1.27
2018-08-06T11:27:46.747Z,1.80
2018-08-06T11:30:17.751Z,1.37
2018-08-06T11:32:47.379Z,1.53
2018-08-06T11:35:16.801Z,1.20
2018-08-06T11:37:45.592Z,1.70
2018-08-06T11:40:16.027Z,1.27
2018-08-06T11:42:45.507Z,1.40
2018-08-06T11:45:16.138Z,1.37
2018-08-06T11:47:45.200Z,1.40
2018-08-06T11:50:14.199Z,1.10
2018-08-06T11:52:44.191Z,1.17
2018-08-06T11:55:13.122Z,1.20
2018-08-06T11:57:42.134Z,1.10
2018-08-06T12:00:15.057Z,2.10
2018-08-06T12:02:43.815Z,0.97
2018-08-06T12:05:12.873Z,1.13
2018-08-06T12:07:41.595Z,1.00
2018-08-06T12:10:12.776Z,1.10
2018-08-06T12:12:42.329Z,1.00
2018-08-06T12:15:12.549Z,1.03
2018-08-06T12:17:42.267Z,0.90
2018-08-06T12:20:14.237Z,1.00
2018-08-06T12:22:44.031Z,1.10
2018-08-06T12:25:14.138Z,1.00
2018-08-06T12:27:43.325Z,1.10
2018-08-06T12:30:14.488Z,0.90
2018-08-06T12:32:44.029Z,0.90
2018-08-06T12:35:12.919Z,0.90
2018-08-06T12:37:41.760Z,0.90
2018-08-06T12:40:25.936Z,0.93
2018-08-06T12:42:54.807Z,1.17
2018-08-06T12:45:23.795Z,0.90
2018-08-06T12:47:52.891Z,1.00
2018-08-06T12:50:21.718Z,0.70
2018-08-06T12:52:50.576Z,0.90
2018-08-06T12:55:20.011Z,0.73
2018-08-06T12:57:49.001Z,0.90
2018-08-06T13:00:23.347Z,0.80
2018-08-06T13:02:52.976Z,0.70
2018-08-06T13:05:22.548Z,0.70
2018-08-06T13:07:51.380Z,0.80
2018-08-06T13:10:20.250Z,0.90
2018-08-06T13:12:49.096Z,1.10
2018-08-06T13:15:18.227Z,0.80
2018-08-06T13:17:47.130Z,0.90
2018-08-06T13:20:16.027Z,1.00
2018-08-06T13:22:45.139Z,1.00
2018-08-06T13:25:14.232Z,0.80
2018-08-06T13:27:43.057Z,0.80
2018-08-06T13:30:14.012Z,0.77
2018-08-06T13:32:43.833Z,0.80
2018-08-06T13:35:13.535Z,0.90
2018-08-06T13:37:42.183Z,1.03
2018-08-06T13:40:11.948Z,0.90
2018-08-06T13:42:40.760Z,0.90
2018-08-06T13:45:11.734Z,0.70
2018-08-06T13:47:40.484Z,0.90
2018-08-06T13:50:09.961Z,1.10
2018-08-06T13:52:39.392Z,0.90
2018-08-06T13:55:09.667Z,0.90
2018-08-06T13:57:38.673Z,0.87
2018-08-06T14:00:14.884Z,0.90
2018-08-06T14:02:44.535Z,1.00
2018-08-06T14:05:14.841Z,0.80
2018-08-06T14:07:44.885Z,1.00
2018-08-06T14:10:13.715Z,0.87
2018-08-06T14:12:42.353Z,1.07
2018-08-06T14:15:12.404Z,0.97
2018-08-06T14:17:41.823Z,1.00
2018-08-06T14:20:13.441Z,0.80
2018-08-06T14:22:43.095Z,1.20
2018-08-06T14:25:12.550Z,1.00
2018-08-06T14:27:41.480Z,1.07
2018-08-06T14:30:13.376Z,1.03
2018-08-06T14:32:42.791Z,1.03
2018-08-06T14:35:11.971Z,0.90
2018-08-06T14:37:40.863Z,1.00
2018-08-06T14:40:12.579Z,0.97
2018-08-06T14:42:41.259Z,0.80
2018-08-06T14:45:10.942Z,0.80
2018-08-06T14:47:39.655Z,0.90
2018-08-06T14:50:10.184Z,1.00
2018-08-06T14:52:39.123Z,1.30
2018-08-06T14:55:08.137Z,1.10
2018-08-06T14:57:37.592Z,0.80
2018-08-06T15:00:16.761Z,1.07
2018-08-06T15:02:45.513Z,0.83
2018-08-06T15:05:14.304Z,1.03
2018-08-06T15:07:43.065Z,1.10
2018-08-06T15:10:13.322Z,0.70
2018-08-06T15:12:42.113Z,0.90
2018-08-06T15:15:16.424Z,0.83
2018-08-06T15:17:45.968Z,1.10
2018-08-06T15:20:16.046Z,1.20
2018-08-06T15:22:45.155Z,1.10
2018-08-06T15:25:16.641Z,1.20
2018-08-06T15:27:45.362Z,1.00
2018-08-06T15:30:15.501Z,1.00
2018-08-06T15:32:45.207Z,1.17
2018-08-06T15:35:14.853Z,1.40
2018-08-06T15:37:47.896Z,1.40
2018-08-06T15:40:18.964Z,1.70
2018-08-06T15:42:47.909Z,1.60
2018-08-06T15:45:17.024Z,1.93
2018-08-06T15:47:46.587Z,1.93
2018-08-06T15:50:17.939Z,1.70
2018-08-06T15:52:46.762Z,1.53
2018-08-06T15:55:17.881Z,1.80
2018-08-06T15:57:47.283Z,2.00
2018-08-06T16:00:23.249Z,1.63
2018-08-06T16:02:52.083Z,1.50
2018-08-06T16:05:20.779Z,1.80
2018-08-06T16:07:49.698Z,1.40
2018-08-06T16:10:19.055Z,1.57
2018-08-06T16:12:47.854Z,1.50
2018-08-06T16:15:17.288Z,1.53
2018-08-06T16:17:46.492Z,1.07
2018-08-06T16:20:17.873Z,2.00
2018-08-06T16:22:47.155Z,1.20
2018-08-06T16:25:16.688Z,1.30
2018-08-06T16:27:46.610Z,1.40
2018-08-06T16:30:16.968Z,1.70
2018-08-06T16:32:47.002Z,1.83
2018-08-06T16:35:16.987Z,1.50
2018-08-06T16:37:45.888Z,1.93
2018-08-06T16:40:16.383Z,1.73
2018-08-06T16:42:45.263Z,2.10
2018-08-06T16:45:14.157Z,1.60
2018-08-06T16:47:43.271Z,2.20
2018-08-06T16:50:14.916Z,2.00
2018-08-06T16:52:43.985Z,2.70
2018-08-06T16:55:13.003Z,1.83
2018-08-06T16:57:42.003Z,2.63
2018-08-06T17:00:14.415Z,2.20
2018-08-06T17:02:43.192Z,1.97
2018-08-06T17:05:13.268Z,2.60
2018-08-06T17:07:43.222Z,12.93
2018-08-06T17:10:14.191Z,2.43
2018-08-06T17:12:44.685Z,3.50
2018-08-06T17:15:15.016Z,2.13
2018-08-06T17:17:43.899Z,2.40
2018-08-06T17:20:15.896Z,2.53
2018-08-06T17:22:46.370Z,2.77
2018-08-06T17:25:15.875Z,2.13
2018-08-06T17:27:44.907Z,2.43
2018-08-06T17:30:14.818Z,1.80
2018-08-06T17:32:43.763Z,3.40
2018-08-06T17:35:13.340Z,2.30
2018-08-06T17:37:43.418Z,2.43
2018-08-06T17:40:18.483Z,2.50
2018-08-06T17:42:47.538Z,2.63
2018-08-06T17:45:18.968Z,2.60
2018-08-06T17:47:47.750Z,2.40
2018-08-06T17:50:18.589Z,1.70
2018-08-06T17:52:48.966Z,2.53
2018-08-06T17:55:19.036Z,2.37
2018-08-06T17:57:48.025Z,2.00
2018-08-06T18:00:17.855Z,1.93
2018-08-06T18:02:46.786Z,2.00
2018-08-06T18:05:17.190Z,2.30
2018-08-06T18:07:46.371Z,2.17
2018-08-06T18:10:16.867Z,2.20
2018-08-06T18:12:46.244Z,2.20
2018-08-06T18:15:15.910Z,2.40
2018-08-06T18:17:45.490Z,2.33
2018-08-06T18:20:17.295Z,2.30
2018-08-06T18:22:46.319Z,2.07
2018-08-06T18:25:17.160Z,2.27
2018-08-06T18:27:46.979Z,2.30
2018-08-06T18:30:17.802Z,2.20
2018-08-06T18:32:46.550Z,2.13
2018-08-06T18:35:17.263Z,2.80
2018-08-06T18:37:45.965Z,10.47
2018-08-06T18:40:15.735Z,4.27
2018-08-06T18:42:44.977Z,4.97
2018-08-06T18:45:15.899Z,3.73
2018-08-06T18:47:45.803Z,2.93
2018-08-06T18:50:15.617Z,2.40
2018-08-06T18:52:45.557Z,2.43
2018-08-06T18:55:15.214Z,3.17
2018-08-06T18:57:44.683Z,2.40
2018-08-06T19:00:19.059Z,2.50
2018-08-06T19:02:48.232Z,2.37
2018-08-06T19:05:19.254Z,2.20
2018-08-06T19:07:50.890Z,2.60
2018-08-06T19:10:22.198Z,2.50
2018-08-06T19:12:56.616Z,2.80
2018-08-06T19:15:26.667Z,2.37
2018-08-06T19:18:04.751Z,2.60
2018-08-06T19:20:34.733Z,3.03
2018-08-06T19:23:03.882Z,2.80
2018-08-06T19:25:33.797Z,2.87
2018-08-06T19:28:02.879Z,2.37
2018-08-06T19:30:37.052Z,2.50
2018-08-06T19:33:06.212Z,2.83
2018-08-06T19:35:35.089Z,3.00
2018-08-06T19:38:03.821Z,2.30
2018-08-06T19:40:32.613Z,3.10
2018-08-06T19:43:08.403Z,2.50
2018-08-06T19:45:38.422Z,2.77
2018-08-06T19:48:07.419Z,2.60
2018-08-06T19:50:39.691Z,2.80
2018-08-06T19:53:09.820Z,2.87
2018-08-06T19:55:43.963Z,8.40
2018-08-06T19:58:12.875Z,3.60
2018-08-06T20:00:41.845Z,3.47
2018-08-06T20:03:10.918Z,3.57
2018-08-06T20:05:39.735Z,3.20
2018-08-06T20:08:08.692Z,3.47
2018-08-06T20:10:37.956Z,3.27
2018-08-06T20:13:07.544Z,3.70
2018-08-06T20:15:36.594Z,3.40
2018-08-06T20:18:05.883Z,3.40
2018-08-06T20:20:34.711Z,3.57
2018-08-06T20:23:03.663Z,3.20
2018-08-06T20:25:32.532Z,3.20
2018-08-06T20:28:01.449Z,3.23
2018-08-06T20:30:30.555Z,4.10
2018-08-06T20:33:01.481Z,4.10
2018-08-06T20:35:31.766Z,4.10
2018-08-06T20:38:01.532Z,3.73
2018-08-06T20:40:30.623Z,3.43
2018-08-06T20:42:59.718Z,3.87
2018-08-06T20:45:28.804Z,3.43
2018-08-06T20:47:57.601Z,3.43
2018-08-06T20:50:26.587Z,3.60
2018-08-06T20:52:55.747Z,3.43
2018-08-06T20:55:24.764Z,3.53
2018-08-06T20:57:54.165Z,2.63
2018-08-06T21:00:24.543Z,3.30
2018-08-06T21:02:54.144Z,4.27
2018-08-06T21:05:23.421Z,3.43
2018-08-06T21:07:52.419Z,3.53
2018-08-06T21:10:21.818Z,3.50
2018-08-06T21:12:51.169Z,3.80
2018-08-06T21:15:19.970Z,3.30
2018-08-06T21:17:49.005Z,3.60
2018-08-06T21:20:19.211Z,3.70
2018-08-06T21:22:49.183Z,3.63
2018-08-06T21:25:17.912Z,3.93
2018-08-06T21:27:47.871Z,4.10
2018-08-06T21:30:18.871Z,3.83
2018-08-06T21:32:57.387Z,3.70
2018-08-06T21:35:27.354Z,3.40
2018-08-06T21:37:56.804Z,4.10
2018-08-06T21:40:28.372Z,3.90
2018-08-06T21:42:57.184Z,4.50
2018-08-06T21:45:26.343Z,3.80
2018-08-06T21:47:55.060Z,3.60
2018-08-06T21:50:24.129Z,3.80
2018-08-06T21:52:53.019Z,4.13
2018-08-06T21:55:21.843Z,4.20
2018-08-06T21:57:51.220Z,3.83
2018-08-06T22:00:39.819Z,4.23
2018-08-06T22:03:18.128Z,4.00
2018-08-06T22:05:47.428Z,3.90
2018-08-06T22:08:16.468Z,4.50
2018-08-06T22:10:45.109Z,4.50
2018-08-06T22:13:14.076Z,4.40
2018-08-06T22:15:42.875Z,4.13
2018-08-06T22:18:13.088Z,4.90
2018-08-06T22:20:42.206Z,4.13
2018-08-06T22:23:10.847Z,3.90
2018-08-06T22:25:39.927Z,4.40
2018-08-06T22:28:10.951Z,3.47
2018-08-06T22:30:39.759Z,4.00
2018-08-06T22:33:09.044Z,4.60
2018-08-06T22:35:38.975Z,4.30
2018-08-06T22:38:08.535Z,4.07
2018-08-06T22:40:37.476Z,4.07
2018-08-06T22:43:06.318Z,3.77
2018-08-06T22:45:35.354Z,4.07
2018-08-06T22:48:04.443Z,4.10
2018-08-06T22:50:33.303Z,4.07
2018-08-06T22:53:02.266Z,3.90
2018-08-06T22:55:41.049Z,3.43
2018-08-06T22:58:09.721Z,3.80
2018-08-06T23:00:38.462Z,4.00
2018-08-06T23:03:09.026Z,3.80
2018-08-06T23:05:37.763Z,4.17
2018-08-06T23:08:06.583Z,3.63
2018-08-06T23:10:35.427Z,3.33
2018-08-06T23:13:04.226Z,3.60
2018-08-06T23:15:33.013Z,3.50
2018-08-06T23:18:01.680Z,3.70
2018-08-06T23:20:30.503Z,3.50
2018-08-06T23:22:59.354Z,3.90
2018-08-06T23:25:28.272Z,3.37
2018-08-06T23:27:56.995Z,3.50
2018-08-06T23:30:26.040Z,3.90
2018-08-06T23:32:54.927Z,3.30
2018-08-06T23:35:23.747Z,2.90
2018-08-06T23:37:52.367Z,3.53
2018-08-06T23:40:21.399Z,2.93
2018-08-06T23:42:50.301Z,2.90
2018-08-06T23:45:19.084Z,2.73
2018-08-06T23:47:47.717Z,3.07
2018-08-06T23:50:16.565Z,2.80
2018-08-06T23:52:46.502Z,3.10
2018-08-06T23:55:17.922Z,3.00
2018-08-06T23:57:47.128Z,2.60
